sensor_id;sensor_type;location;lat;lon;timestamp;temperature;humidity
66150;DHT22;52952;50.904;20.648;2024-03-23T01:00:18;29;76
66150;DHT22;52952;50.904;20.648;2024-03-23T01:10:03;28;75
66150;DHT22;52952;50.904;20.648;2024-03-23T01:20:18;28;75
66150;DHT22;52952;50.904;20.648;2024-03-23T01:30:04;28;75
66150;DHT22;52952;50.904;20.648;2024-03-23T01:40:22;28;75
66150;DHT22;52952;50.904;20.648;2024-03-23T01:50:05;28;75
66150;DHT22;52952;50.904;20.648;2024-03-23T02:00:21;28;75
66150;DHT22;52952;50.904;20.648;2024-03-23T02:10:15;28;74
66150;DHT22;52952;50.904;20.648;2024-03-23T02:20:16;28;74
66150;DHT22;52952;50.904;20.648;2024-03-23T02:30:13;28;74
66150;DHT22;52952;50.904;20.648;2024-03-23T02:40:13;28;74
66150;DHT22;52952;50.904;20.648;2024-03-23T02:50:03;28;74
66150;DHT22;52952;50.904;20.648;2024-03-23T03:00:20;28;74
66150;DHT22;52952;50.904;20.648;2024-03-23T03:10:16;28;74
66150;DHT22;52952;50.904;20.648;2024-03-23T03:20:16;28;74
66150;DHT22;52952;50.904;20.648;2024-03-23T03:30:20;28;74
66150;DHT22;52952;50.904;20.648;2024-03-23T03:40:03;28;74
66150;DHT22;52952;50.904;20.648;2024-03-23T03:50:05;28;74
66150;DHT22;52952;50.904;20.648;2024-03-23T04:00:12;28;74
66150;DHT22;52952;50.904;20.648;2024-03-23T04:10:17;28;77
66150;DHT22;52952;50.904;20.648;2024-03-23T04:20:12;28;77
66150;DHT22;52952;50.904;20.648;2024-03-23T04:30:12;28;77
66150;DHT22;52952;50.904;20.648;2024-03-23T04:40:06;28;77
66150;DHT22;52952;50.904;20.648;2024-03-23T04:50:05;28;77
66150;DHT22;52952;50.904;20.648;2024-03-23T05:00:18;28;77
66150;DHT22;52952;50.904;20.648;2024-03-23T05:10:17;28;77
66150;DHT22;52952;50.904;20.648;2024-03-23T05:20:22;28;77
66150;DHT22;52952;50.904;20.648;2024-03-23T05:30:17;28;77
66150;DHT22;52952;50.904;20.648;2024-03-23T05:40:07;28;77
66150;DHT22;52952;50.904;20.648;2024-03-23T05:50:05;28;77
66150;DHT22;52952;50.904;20.648;2024-03-23T06:00:03;28;77
66150;DHT22;52952;50.904;20.648;2024-03-23T06:10:06;28;76
66150;DHT22;52952;50.904;20.648;2024-03-23T06:20:17;28;76
66150;DHT22;52952;50.904;20.648;2024-03-23T06:30:03;28;76
66150;DHT22;52952;50.904;20.648;2024-03-23T06:40:10;28;76
66150;DHT22;52952;50.904;20.648;2024-03-23T06:50:05;28;76
66150;DHT22;52952;50.904;20.648;2024-03-23T07:00:12;28;76
66150;DHT22;52952;50.904;20.648;2024-03-23T07:20:14;28;77
66150;DHT22;52952;50.904;20.648;2024-03-23T07:30:09;28;77
66150;DHT22;52952;50.904;20.648;2024-03-23T07:40:16;28;77
66150;DHT22;52952;50.904;20.648;2024-03-23T07:50:10;28;77
66150;DHT22;52952;50.904;20.648;2024-03-23T08:00:02;28;77
66150;DHT22;52952;50.904;20.648;2024-03-23T08:10:10;28;76
66150;DHT22;52952;50.904;20.648;2024-03-23T08:20:18;28;76
66150;DHT22;52952;50.904;20.648;2024-03-23T08:30:19;28;76
66150;DHT22;52952;50.904;20.648;2024-03-23T08:40:02;28;76
66150;DHT22;52952;50.904;20.648;2024-03-23T08:50:10;28;76
66150;DHT22;52952;50.904;20.648;2024-03-23T09:00:20;28;76
66150;DHT22;52952;50.904;20.648;2024-03-23T09:10:12;28;76
66150;DHT22;52952;50.904;20.648;2024-03-23T09:20:06;28;76
66150;DHT22;52952;50.904;20.648;2024-03-23T09:30:15;28;76
66150;DHT22;52952;50.904;20.648;2024-03-23T09:40:18;28;76
66150;DHT22;52952;50.904;20.648;2024-03-23T09:50:13;28;76
66150;DHT22;52952;50.904;20.648;2024-03-23T10:00:02;28;76
66150;DHT22;52952;50.904;20.648;2024-03-23T10:10:22;28;74
66150;DHT22;52952;50.904;20.648;2024-03-23T10:20:23;28;74
66150;DHT22;52952;50.904;20.648;2024-03-23T10:30:29;28;74
66150;DHT22;52952;50.904;20.648;2024-03-23T10:50:13;28;74
66150;DHT22;52952;50.904;20.648;2024-03-23T11:00:22;28;74
66150;DHT22;52952;50.904;20.648;2024-03-23T11:20:03;28;72
66150;DHT22;52952;50.904;20.648;2024-03-23T11:30:28;28;72
66150;DHT22;52952;50.904;20.648;2024-03-23T11:40:21;28;72
66150;DHT22;52952;50.904;20.648;2024-03-23T11:50:05;28;72
66150;DHT22;52952;50.904;20.648;2024-03-23T12:00:27;28;72
66150;DHT22;52952;50.904;20.648;2024-03-23T12:10:07;28;73
66150;DHT22;52952;50.904;20.648;2024-03-23T12:20:12;28;73
66150;DHT22;52952;50.904;20.648;2024-03-23T12:30:16;28;73
66150;DHT22;52952;50.904;20.648;2024-03-23T12:40:13;28;73
66150;DHT22;52952;50.904;20.648;2024-03-23T12:50:12;28;73
66150;DHT22;52952;50.904;20.648;2024-03-23T13:00:07;28;73
66150;DHT22;52952;50.904;20.648;2024-03-23T13:10:12;28;72
66150;DHT22;52952;50.904;20.648;2024-03-23T13:20:02;28;72
66150;DHT22;52952;50.904;20.648;2024-03-23T13:30:13;28;72
66150;DHT22;52952;50.904;20.648;2024-03-23T13:40:16;28;72
66150;DHT22;52952;50.904;20.648;2024-03-23T13:50:05;28;72
66150;DHT22;52952;50.904;20.648;2024-03-23T14:00:10;28;72
66150;DHT22;52952;50.904;20.648;2024-03-23T14:10:15;28;71
66150;DHT22;52952;50.904;20.648;2024-03-23T14:20:18;28;71
66150;DHT22;52952;50.904;20.648;2024-03-23T14:30:08;28;71
66150;DHT22;52952;50.904;20.648;2024-03-23T14:40:15;28;71
66150;DHT22;52952;50.904;20.648;2024-03-23T14:50:05;28;71
66150;DHT22;52952;50.904;20.648;2024-03-23T15:00:16;28;71
66150;DHT22;52952;50.904;20.648;2024-03-23T15:20:04;28;71
66150;DHT22;52952;50.904;20.648;2024-03-23T15:30:07;28;71
66150;DHT22;52952;50.904;20.648;2024-03-23T15:50:14;28;71
66150;DHT22;52952;50.904;20.648;2024-03-23T16:00:18;28;71
66150;DHT22;52952;50.904;20.648;2024-03-23T16:10:14;28;71
66150;DHT22;52952;50.904;20.648;2024-03-23T16:20:16;28;73
66150;DHT22;52952;50.904;20.648;2024-03-23T16:30:16;28;73
66150;DHT22;52952;50.904;20.648;2024-03-23T16:40:14;28;73
66150;DHT22;52952;50.904;20.648;2024-03-23T16:50:07;28;73
66150;DHT22;52952;50.904;20.648;2024-03-23T17:00:15;28;73
66150;DHT22;52952;50.904;20.648;2024-03-23T17:10:08;28;73
66150;DHT22;52952;50.904;20.648;2024-03-23T17:20:05;28;74
66150;DHT22;52952;50.904;20.648;2024-03-23T17:30:12;28;74
66150;DHT22;52952;50.904;20.648;2024-03-23T17:40:14;28;74
66150;DHT22;52952;50.904;20.648;2024-03-23T18:00:13;28;74
66150;DHT22;52952;50.904;20.648;2024-03-23T18:10:15;28;74
66150;DHT22;52952;50.904;20.648;2024-03-23T18:20:03;28;74
66150;DHT22;52952;50.904;20.648;2024-03-23T18:30:07;28;74
66150;DHT22;52952;50.904;20.648;2024-03-23T18:40:05;28;74
66150;DHT22;52952;50.904;20.648;2024-03-23T18:50:10;28;74
66150;DHT22;52952;50.904;20.648;2024-03-23T19:00:18;28;74
66150;DHT22;52952;50.904;20.648;2024-03-23T19:10:08;28;74
66150;DHT22;52952;50.904;20.648;2024-03-23T19:20:02;28;73
66150;DHT22;52952;50.904;20.648;2024-03-23T19:30:03;28;73
66150;DHT22;52952;50.904;20.648;2024-03-23T19:40:14;28;73
66150;DHT22;52952;50.904;20.648;2024-03-23T19:50:11;28;73
66150;DHT22;52952;50.904;20.648;2024-03-23T20:00:18;28;73
66150;DHT22;52952;50.904;20.648;2024-03-23T20:10:02;28;73
66150;DHT22;52952;50.904;20.648;2024-03-23T20:20:18;28;74
66150;DHT22;52952;50.904;20.648;2024-03-23T20:30:12;28;74
66150;DHT22;52952;50.904;20.648;2024-03-23T20:40:17;28;74
66150;DHT22;52952;50.904;20.648;2024-03-23T20:50:18;28;74
66150;DHT22;52952;50.904;20.648;2024-03-23T21:00:19;28;74
66150;DHT22;52952;50.904;20.648;2024-03-23T21:10:11;28;74
66150;DHT22;52952;50.904;20.648;2024-03-23T21:20:15;28;74
66150;DHT22;52952;50.904;20.648;2024-03-23T21:30:03;28;74
66150;DHT22;52952;50.904;20.648;2024-03-23T21:40:15;28;74
66150;DHT22;52952;50.904;20.648;2024-03-23T21:50:12;28;74
66150;DHT22;52952;50.904;20.648;2024-03-23T22:00:21;28;74
66150;DHT22;52952;50.904;20.648;2024-03-23T22:10:04;28;74
66150;DHT22;52952;50.904;20.648;2024-03-23T22:20:02;28;72
66150;DHT22;52952;50.904;20.648;2024-03-23T22:30:02;28;72
66150;DHT22;52952;50.904;20.648;2024-03-23T22:40:14;28;72
66150;DHT22;52952;50.904;20.648;2024-03-23T22:50:05;28;72
66150;DHT22;52952;50.904;20.648;2024-03-23T23:00:22;28;72
66150;DHT22;52952;50.904;20.648;2024-03-23T23:10:13;28;70
66150;DHT22;52952;50.904;20.648;2024-03-23T23:20:05;28;70
66150;DHT22;52952;50.904;20.648;2024-03-23T23:30:12;28;70
66150;DHT22;52952;50.904;20.648;2024-03-23T23:40:14;28;70
66150;DHT22;52952;50.904;20.648;2024-03-23T23:50:02;28;70
